Terminal Aerodrome Forecast
Issued by NWS Paducah, KY

Home | Current Version | Previous Version | Text Only | Print | Product List | Glossary Off
Versions: 1 2 3 4 5 6 7 8 9 10 11 12 13 14 15 16 17 18 19 20 21 22 23 24

566
FTUS43 KPAH 101129
TAFPAH
TAF
KPAH 101129Z 1012/1112 31008KT P6SM SCT035
     FM101800 26006KT P6SM BKN150
     FM102200 24006KT P6SM BKN035 OVC060
      TEMPO 1100/1104 -SN BKN030=

USA.gov is the U.S. government's official web portal to all federal, state and local government web resources and services.